sensor_id;sensor_type;location;lat;lon;timestamp;pressure;altitude;pressure_sealevel;temperature;humidity
28354;BME280;15603;50.878;8.036;2023-02-04T00:00:14;144573.38;;;5.54;99.21
28354;BME280;15603;50.878;8.036;2023-02-04T00:02:41;144617.00;;;5.73;100.00
28354;BME280;15603;50.878;8.036;2023-02-04T00:05:09;144476.53;;;5.13;99.30
28354;BME280;15603;50.878;8.036;2023-02-04T00:07:37;144510.44;;;5.27;98.99
28354;BME280;15603;50.878;8.036;2023-02-04T00:10:06;144585.50;;;5.59;100.00
28354;BME280;15603;50.878;8.036;2023-02-04T00:12:34;144561.31;;;5.49;100.00
28354;BME280;15603;50.878;8.036;2023-02-04T00:15:01;144561.31;;;5.49;100.00
28354;BME280;15603;50.878;8.036;2023-02-04T00:17:28;144432.97;;;4.95;100.00
28354;BME280;15603;50.878;8.036;2023-02-04T00:19:55;144550.38;;;5.44;100.00
28354;BME280;15603;50.878;8.036;2023-02-04T00:22:22;144531.00;;;5.36;100.00
28354;BME280;15603;50.878;8.036;2023-02-04T00:24:49;144528.63;;;5.35;100.00
28354;BME280;15603;50.878;8.036;2023-02-04T00:27:16;144528.63;;;5.35;100.00
28354;BME280;15603;50.878;8.036;2023-02-04T00:29:43;144503.16;;;5.24;100.00
28354;BME280;15603;50.878;8.036;2023-02-04T00:32:12;144453.53;;;5.03;100.00
28354;BME280;15603;50.878;8.036;2023-02-04T00:34:40;144466.84;;;5.09;100.00
28354;BME280;15603;50.878;8.036;2023-02-04T00:37:07;144350.63;;;4.60;100.00
28354;BME280;15603;50.878;8.036;2023-02-04T00:39:34;144563.69;;;5.50;100.00
28354;BME280;15603;50.878;8.036;2023-02-04T00:42:01;144558.84;;;5.48;100.00
28354;BME280;15603;50.878;8.036;2023-02-04T00:44:28;144435.38;;;4.96;100.00
28354;BME280;15603;50.878;8.036;2023-02-04T00:46:56;144577.03;;;5.56;100.00
28354;BME280;15603;50.878;8.036;2023-02-04T00:49:23;144495.88;;;5.21;100.00
28354;BME280;15603;50.878;8.036;2023-02-04T00:51:50;144624.28;;;5.76;100.00
28354;BME280;15603;50.878;8.036;2023-02-04T00:54:17;144574.63;;;5.55;100.00
28354;BME280;15603;50.878;8.036;2023-02-04T00:56:45;144563.69;;;5.50;100.00
28354;BME280;15603;50.878;8.036;2023-02-04T00:59:12;144606.13;;;5.68;100.00
28354;BME280;15603;50.878;8.036;2023-02-04T01:01:40;144600.03;;;5.65;100.00
28354;BME280;15603;50.878;8.036;2023-02-04T01:04:07;144500.72;;;5.23;100.00
28354;BME280;15603;50.878;8.036;2023-02-04T01:06:34;144604.88;;;5.67;100.00
28354;BME280;15603;50.878;8.036;2023-02-04T01:09:02;144510.44;;;5.27;100.00
28354;BME280;15603;50.878;8.036;2023-02-04T01:11:29;144606.13;;;5.68;100.00
28354;BME280;15603;50.878;8.036;2023-02-04T01:13:56;144603.66;;;5.67;100.00
28354;BME280;15603;50.878;8.036;2023-02-04T01:16:27;144446.25;;;5.00;100.00
28354;BME280;15603;50.878;8.036;2023-02-04T01:18:54;144586.72;;;5.60;100.00
28354;BME280;15603;50.878;8.036;2023-02-04T01:21:23;144578.22;;;5.56;100.00
28354;BME280;15603;50.878;8.036;2023-02-04T01:23:51;144560.06;;;5.48;100.00
28354;BME280;15603;50.878;8.036;2023-02-04T01:26:18;144538.28;;;5.39;100.00
28354;BME280;15603;50.878;8.036;2023-02-04T01:28:46;144541.88;;;5.41;100.00
28354;BME280;15603;50.878;8.036;2023-02-04T01:31:13;144561.31;;;5.49;100.00
28354;BME280;15603;50.878;8.036;2023-02-04T01:33:40;144544.34;;;5.42;100.00
28354;BME280;15603;50.878;8.036;2023-02-04T01:36:08;144573.38;;;5.54;100.00
28354;BME280;15603;50.878;8.036;2023-02-04T01:38:35;144459.56;;;5.06;100.00
28354;BME280;15603;50.878;8.036;2023-02-04T01:41:03;144544.34;;;5.42;100.00
28354;BME280;15603;50.878;8.036;2023-02-04T01:43:30;144544.34;;;5.42;100.00
28354;BME280;15603;50.878;8.036;2023-02-04T01:45:58;144439.00;;;4.97;100.00
28354;BME280;15603;50.878;8.036;2023-02-04T01:48:25;144531.00;;;5.36;100.00
28354;BME280;15603;50.878;8.036;2023-02-04T01:51:03;144457.16;;;5.05;100.00
28354;BME280;15603;50.878;8.036;2023-02-04T01:53:31;144483.81;;;5.16;100.00
28354;BME280;15603;50.878;8.036;2023-02-04T01:55:59;144432.97;;;4.95;100.00
28354;BME280;15603;50.878;8.036;2023-02-04T01:58:29;144435.38;;;4.96;100.00
28354;BME280;15603;50.878;8.036;2023-02-04T02:00:57;144508.00;;;5.26;100.00
28354;BME280;15603;50.878;8.036;2023-02-04T02:03:25;144411.19;;;4.85;100.00
28354;BME280;15603;50.878;8.036;2023-02-04T02:05:53;144460.81;;;5.06;100.00
28354;BME280;15603;50.878;8.036;2023-02-04T02:08:24;144540.69;;;5.40;100.00
28354;BME280;15603;50.878;8.036;2023-02-04T02:10:51;144501.97;;;5.24;100.00
28354;BME280;15603;50.878;8.036;2023-02-04T02:13:21;144469.28;;;5.10;100.00
28354;BME280;15603;50.878;8.036;2023-02-04T02:15:50;144498.31;;;5.22;100.00
28354;BME280;15603;50.878;8.036;2023-02-04T02:18:18;144491.03;;;5.19;100.00
28354;BME280;15603;50.878;8.036;2023-02-04T02:20:45;144462.00;;;5.07;100.00
28354;BME280;15603;50.878;8.036;2023-02-04T02:26:18;144336.13;;;4.53;100.00
28354;BME280;15603;50.878;8.036;2023-02-04T02:28:46;144457.16;;;5.05;100.00
28354;BME280;15603;50.878;8.036;2023-02-04T02:31:15;144386.94;;;4.75;100.00
28354;BME280;15603;50.878;8.036;2023-02-04T02:33:43;144275.63;;;4.28;100.00
28354;BME280;15603;50.878;8.036;2023-02-04T02:36:11;144334.91;;;4.53;100.00
28354;BME280;15603;50.878;8.036;2023-02-04T02:38:38;144399.06;;;4.80;100.00
28354;BME280;15603;50.878;8.036;2023-02-04T02:41:05;144229.66;;;4.08;100.00
28354;BME280;15603;50.878;8.036;2023-02-04T02:43:36;144226.03;;;4.07;100.00
28354;BME280;15603;50.878;8.036;2023-02-04T02:46:04;144348.25;;;4.59;100.00
28354;BME280;15603;50.878;8.036;2023-02-04T02:48:32;144345.78;;;4.58;100.00
28354;BME280;15603;50.878;8.036;2023-02-04T02:51:00;144350.63;;;4.60;100.00
28354;BME280;15603;50.878;8.036;2023-02-04T02:53:27;144316.78;;;4.45;100.00
28354;BME280;15603;50.878;8.036;2023-02-04T02:55:54;144241.72;;;4.13;100.00
28354;BME280;15603;50.878;8.036;2023-02-04T02:58:28;144220.00;;;4.04;100.00
28354;BME280;15603;50.878;8.036;2023-02-04T03:00:59;144326.44;;;4.49;100.00
28354;BME280;15603;50.878;8.036;2023-02-04T03:03:33;144345.78;;;4.58;100.00
28354;BME280;15603;50.878;8.036;2023-02-04T03:06:09;144320.41;;;4.47;100.00
28354;BME280;15603;50.878;8.036;2023-02-04T03:08:38;144159.50;;;3.79;100.00
28354;BME280;15603;50.878;8.036;2023-02-04T03:11:06;144357.91;;;4.63;100.00
28354;BME280;15603;50.878;8.036;2023-02-04T03:13:33;144309.50;;;4.42;100.00
28354;BME280;15603;50.878;8.036;2023-02-04T03:16:00;144356.72;;;4.62;100.00
28354;BME280;15603;50.878;8.036;2023-02-04T03:18:28;144388.19;;;4.76;100.00
28354;BME280;15603;50.878;8.036;2023-02-04T03:20:56;144252.66;;;4.18;100.00
28354;BME280;15603;50.878;8.036;2023-02-04T03:23:24;144386.94;;;4.75;100.00
28354;BME280;15603;50.878;8.036;2023-02-04T03:25:53;144391.78;;;4.77;100.00
28354;BME280;15603;50.878;8.036;2023-02-04T03:28:21;144287.75;;;4.33;100.00
28354;BME280;15603;50.878;8.036;2023-02-04T03:30:48;144348.25;;;4.59;100.00
28354;BME280;15603;50.878;8.036;2023-02-04T03:33:19;144343.41;;;4.57;100.00
28354;BME280;15603;50.878;8.036;2023-02-04T03:35:46;144321.59;;;4.47;100.00
28354;BME280;15603;50.878;8.036;2023-02-04T03:38:13;144379.69;;;4.72;100.00
28354;BME280;15603;50.878;8.036;2023-02-04T03:40:40;144253.84;;;4.19;100.00
28354;BME280;15603;50.878;8.036;2023-02-04T03:43:07;144357.91;;;4.63;100.00
28354;BME280;15603;50.878;8.036;2023-02-04T03:45:35;144353.06;;;4.61;100.00
28354;BME280;15603;50.878;8.036;2023-02-04T03:48:11;144195.78;;;3.94;100.00
28354;BME280;15603;50.878;8.036;2023-02-04T03:50:38;144274.44;;;4.27;100.00
28354;BME280;15603;50.878;8.036;2023-02-04T03:53:05;144258.69;;;4.21;100.00
28354;BME280;15603;50.878;8.036;2023-02-04T03:55:32;144321.59;;;4.47;100.00
28354;BME280;15603;50.878;8.036;2023-02-04T03:57:59;144294.97;;;4.36;100.00
28354;BME280;15603;50.878;8.036;2023-02-04T04:00:26;144308.28;;;4.42;100.00
28354;BME280;15603;50.878;8.036;2023-02-04T04:02:54;144403.91;;;4.82;100.00
28354;BME280;15603;50.878;8.036;2023-02-04T04:05:21;144363.94;;;4.65;100.00
28354;BME280;15603;50.878;8.036;2023-02-04T04:07:48;144357.91;;;4.63;100.00
28354;BME280;15603;50.878;8.036;2023-02-04T04:10:16;144338.56;;;4.55;100.00
28354;BME280;15603;50.878;8.036;2023-02-04T04:12:43;144353.06;;;4.61;100.00
28354;BME280;15603;50.878;8.036;2023-02-04T04:15:10;144263.53;;;4.23;100.00
28354;BME280;15603;50.878;8.036;2023-02-04T04:17:37;144336.13;;;4.53;100.00
28354;BME280;15603;50.878;8.036;2023-02-04T04:20:04;144311.94;;;4.43;100.00
28354;BME280;15603;50.878;8.036;2023-02-04T04:22:32;144253.84;;;4.19;100.00
28354;BME280;15603;50.878;8.036;2023-02-04T04:24:59;144210.28;;;4.00;100.00
28354;BME280;15603;50.878;8.036;2023-02-04T04:27:26;144339.75;;;4.55;100.00
28354;BME280;15603;50.878;8.036;2023-02-04T04:29:55;144115.97;;;3.60;100.00
28354;BME280;15603;50.878;8.036;2023-02-04T04:32:22;144193.38;;;3.93;100.00
28354;BME280;15603;50.878;8.036;2023-02-04T04:34:49;144293.78;;;4.36;100.00
28354;BME280;15603;50.878;8.036;2023-02-04T04:37:16;144212.72;;;4.01;100.00
28354;BME280;15603;50.878;8.036;2023-02-04T04:39:43;144278.03;;;4.29;100.00
28354;BME280;15603;50.878;8.036;2023-02-04T04:42:11;144203.06;;;3.97;100.00
28354;BME280;15603;50.878;8.036;2023-02-04T04:44:38;144301.00;;;4.39;100.00
28354;BME280;15603;50.878;8.036;2023-02-04T04:47:05;144377.25;;;4.71;100.00
28354;BME280;15603;50.878;8.036;2023-02-04T04:49:32;144348.25;;;4.59;100.00
28354;BME280;15603;50.878;8.036;2023-02-04T04:51:59;144281.66;;;4.30;100.00
28354;BME280;15603;50.878;8.036;2023-02-04T04:54:26;144384.53;;;4.74;100.00
28354;BME280;15603;50.878;8.036;2023-02-04T04:56:53;144331.28;;;4.51;100.00
28354;BME280;15603;50.878;8.036;2023-02-04T04:59:20;144362.75;;;4.65;100.00
28354;BME280;15603;50.878;8.036;2023-02-04T05:01:47;144292.59;;;4.35;100.00
28354;BME280;15603;50.878;8.036;2023-02-04T05:04:14;144382.09;;;4.73;100.00
28354;BME280;15603;50.878;8.036;2023-02-04T05:06:41;144255.03;;;4.19;100.00
28354;BME280;15603;50.878;8.036;2023-02-04T05:09:08;144317.97;;;4.46;100.00
28354;BME280;15603;50.878;8.036;2023-02-04T05:11:35;144382.09;;;4.73;100.00
28354;BME280;15603;50.878;8.036;2023-02-04T05:14:02;144313.13;;;4.44;100.00
28354;BME280;15603;50.878;8.036;2023-02-04T05:16:29;144394.22;;;4.78;100.00
28354;BME280;15603;50.878;8.036;2023-02-04T05:18:57;144408.72;;;4.84;100.00
28354;BME280;15603;50.878;8.036;2023-02-04T05:21:24;144424.50;;;4.91;100.00
28354;BME280;15603;50.878;8.036;2023-02-04T05:23:51;144411.19;;;4.85;100.00
28354;BME280;15603;50.878;8.036;2023-02-04T05:26:18;144408.72;;;4.84;100.00
28354;BME280;15603;50.878;8.036;2023-02-04T05:28:56;144405.09;;;4.83;100.00
28354;BME280;15603;50.878;8.036;2023-02-04T05:31:23;144379.69;;;4.72;100.00
28354;BME280;15603;50.878;8.036;2023-02-04T05:33:50;144278.03;;;4.29;100.00
28354;BME280;15603;50.878;8.036;2023-02-04T05:36:17;144435.38;;;4.96;100.00
28354;BME280;15603;50.878;8.036;2023-02-04T05:38:44;144431.72;;;4.94;100.00
28354;BME280;15603;50.878;8.036;2023-02-04T05:41:11;144425.69;;;4.91;100.00
28354;BME280;15603;50.878;8.036;2023-02-04T05:43:38;144449.88;;;5.02;100.00
28354;BME280;15603;50.878;8.036;2023-02-04T05:46:06;144449.88;;;5.02;100.00
28354;BME280;15603;50.878;8.036;2023-02-04T05:48:33;144448.69;;;5.01;100.00
28354;BME280;15603;50.878;8.036;2023-02-04T05:51:00;144391.78;;;4.77;100.00
28354;BME280;15603;50.878;8.036;2023-02-04T05:53:29;144350.63;;;4.60;100.00
28354;BME280;15603;50.878;8.036;2023-02-04T05:55:56;144437.81;;;4.97;100.00
28354;BME280;15603;50.878;8.036;2023-02-04T05:58:23;144441.41;;;4.98;100.00
28354;BME280;15603;50.878;8.036;2023-02-04T06:00:50;144418.41;;;4.88;100.00
28354;BME280;15603;50.878;8.036;2023-02-04T06:03:17;144426.91;;;4.92;100.00
28354;BME280;15603;50.878;8.036;2023-02-04T06:05:45;144365.19;;;4.66;100.00
28354;BME280;15603;50.878;8.036;2023-02-04T06:08:12;144458.38;;;5.05;100.00
28354;BME280;15603;50.878;8.036;2023-02-04T06:10:41;144405.09;;;4.83;100.00
28354;BME280;15603;50.878;8.036;2023-02-04T06:13:08;144418.41;;;4.88;100.00
28354;BME280;15603;50.878;8.036;2023-02-04T06:15:35;144515.28;;;5.29;100.00
28354;BME280;15603;50.878;8.036;2023-02-04T06:18:02;144497.13;;;5.22;100.00
28354;BME280;15603;50.878;8.036;2023-02-04T06:20:29;144472.88;;;5.11;100.00
28354;BME280;15603;50.878;8.036;2023-02-04T06:22:57;144330.09;;;4.51;100.00
28354;BME280;15603;50.878;8.036;2023-02-04T06:25:24;144449.88;;;5.02;100.00
28354;BME280;15603;50.878;8.036;2023-02-04T06:27:51;144462.00;;;5.07;100.00
28354;BME280;15603;50.878;8.036;2023-02-04T06:30:18;144430.53;;;4.94;100.00
28354;BME280;15603;50.878;8.036;2023-02-04T06:32:45;144436.56;;;4.96;100.00
28354;BME280;15603;50.878;8.036;2023-02-04T06:35:13;144448.69;;;5.01;100.00
28354;BME280;15603;50.878;8.036;2023-02-04T06:37:42;144445.06;;;5.00;100.00
28354;BME280;15603;50.878;8.036;2023-02-04T06:40:10;144253.84;;;4.19;100.00
28354;BME280;15603;50.878;8.036;2023-02-04T06:42:38;144447.50;;;5.01;100.00
28354;BME280;15603;50.878;8.036;2023-02-04T06:45:05;144425.69;;;4.91;100.00
28354;BME280;15603;50.878;8.036;2023-02-04T06:47:32;144435.38;;;4.96;100.00
28354;BME280;15603;50.878;8.036;2023-02-04T06:49:59;144331.28;;;4.51;100.00
28354;BME280;15603;50.878;8.036;2023-02-04T06:52:27;144382.09;;;4.73;100.00
28354;BME280;15603;50.878;8.036;2023-02-04T06:54:54;144402.69;;;4.82;100.00
28354;BME280;15603;50.878;8.036;2023-02-04T06:57:21;144385.75;;;4.75;100.00
28354;BME280;15603;50.878;8.036;2023-02-04T06:59:48;144419.66;;;4.89;100.00
28354;BME280;15603;50.878;8.036;2023-02-04T07:02:15;144339.75;;;4.55;100.00
28354;BME280;15603;50.878;8.036;2023-02-04T07:04:42;144449.88;;;5.02;100.00
28354;BME280;15603;50.878;8.036;2023-02-04T07:07:10;144343.41;;;4.57;100.00
28354;BME280;15603;50.878;8.036;2023-02-04T07:09:37;144449.88;;;5.02;100.00
28354;BME280;15603;50.878;8.036;2023-02-04T07:12:06;144458.38;;;5.05;100.00
28354;BME280;15603;50.878;8.036;2023-02-04T07:14:33;144315.56;;;4.45;100.00
28354;BME280;15603;50.878;8.036;2023-02-04T07:17:00;144468.03;;;5.09;100.00
28354;BME280;15603;50.878;8.036;2023-02-04T07:19:28;144423.25;;;4.90;100.00
28354;BME280;15603;50.878;8.036;2023-02-04T07:21:55;144389.38;;;4.76;100.00
28354;BME280;15603;50.878;8.036;2023-02-04T07:24:23;144505.59;;;5.25;100.00
28354;BME280;15603;50.878;8.036;2023-02-04T07:26:50;144508.00;;;5.26;100.00
28354;BME280;15603;50.878;8.036;2023-02-04T07:29:17;144355.47;;;4.62;100.00
28354;BME280;15603;50.878;8.036;2023-02-04T07:31:52;144495.88;;;5.21;100.00
28354;BME280;15603;50.878;8.036;2023-02-04T07:34:19;144522.53;;;5.32;100.00
28354;BME280;15603;50.878;8.036;2023-02-04T07:36:47;144423.25;;;4.90;100.00
28354;BME280;15603;50.878;8.036;2023-02-04T07:39:14;144534.66;;;5.38;100.00
28354;BME280;15603;50.878;8.036;2023-02-04T07:41:41;144539.50;;;5.40;100.00
28354;BME280;15603;50.878;8.036;2023-02-04T07:44:08;144498.31;;;5.22;100.00
28354;BME280;15603;50.878;8.036;2023-02-04T07:46:35;144556.47;;;5.47;100.00
28354;BME280;15603;50.878;8.036;2023-02-04T07:49:02;144549.19;;;5.44;100.00
28354;BME280;15603;50.878;8.036;2023-02-04T07:51:29;144374.88;;;4.70;100.00
28354;BME280;15603;50.878;8.036;2023-02-04T07:53:56;144563.69;;;5.50;100.00
28354;BME280;15603;50.878;8.036;2023-02-04T07:56:23;144537.06;;;5.39;100.00
28354;BME280;15603;50.878;8.036;2023-02-04T07:58:51;144544.34;;;5.42;100.00
28354;BME280;15603;50.878;8.036;2023-02-04T08:01:18;144464.41;;;5.08;100.00
28354;BME280;15603;50.878;8.036;2023-02-04T08:03:45;144570.97;;;5.53;100.00
28354;BME280;15603;50.878;8.036;2023-02-04T08:06:12;144568.53;;;5.52;100.00
28354;BME280;15603;50.878;8.036;2023-02-04T08:08:39;144575.81;;;5.55;100.00
28354;BME280;15603;50.878;8.036;2023-02-04T08:11:06;144595.19;;;5.63;100.00
28354;BME280;15603;50.878;8.036;2023-02-04T08:13:33;144463.22;;;5.07;100.00
28354;BME280;15603;50.878;8.036;2023-02-04T08:16:00;144597.63;;;5.64;100.00
28354;BME280;15603;50.878;8.036;2023-02-04T08:18:28;144600.03;;;5.65;100.00
28354;BME280;15603;50.878;8.036;2023-02-04T08:20:55;144510.44;;;5.27;100.00
28354;BME280;15603;50.878;8.036;2023-02-04T08:23:22;144561.31;;;5.49;100.00
28354;BME280;15603;50.878;8.036;2023-02-04T08:25:49;144655.78;;;5.89;100.00
28354;BME280;15603;50.878;8.036;2023-02-04T08:28:18;144683.69;;;6.01;100.00
28354;BME280;15603;50.878;8.036;2023-02-04T08:30:45;144694.56;;;6.05;100.00
28354;BME280;15603;50.878;8.036;2023-02-04T08:33:12;144676.41;;;5.98;100.00
28354;BME280;15603;50.878;8.036;2023-02-04T08:35:39;144677.59;;;5.98;100.00
28354;BME280;15603;50.878;8.036;2023-02-04T08:38:06;144755.13;;;6.31;100.00
28354;BME280;15603;50.878;8.036;2023-02-04T08:40:34;144791.47;;;6.46;100.00
28354;BME280;15603;50.878;8.036;2023-02-04T08:43:01;144716.38;;;6.15;100.00
28354;BME280;15603;50.878;8.036;2023-02-04T08:45:28;144789.09;;;6.45;100.00
28354;BME280;15603;50.878;8.036;2023-02-04T08:47:55;144859.34;;;6.75;100.00
28354;BME280;15603;50.878;8.036;2023-02-04T08:50:22;144821.81;;;6.59;100.00
28354;BME280;15603;50.878;8.036;2023-02-04T08:52:49;144827.84;;;6.62;100.00
28354;BME280;15603;50.878;8.036;2023-02-04T08:55:16;144801.22;;;6.51;100.00
28354;BME280;15603;50.878;8.036;2023-02-04T08:57:43;144812.09;;;6.55;100.00
28354;BME280;15603;50.878;8.036;2023-02-04T09:00:11;144808.47;;;6.54;100.00
28354;BME280;15603;50.878;8.036;2023-02-04T09:02:38;144699.41;;;6.07;100.00
28354;BME280;15603;50.878;8.036;2023-02-04T09:05:05;144873.94;;;6.81;100.00
28354;BME280;15603;50.878;8.036;2023-02-04T09:07:33;144878.78;;;6.83;100.00
28354;BME280;15603;50.878;8.036;2023-02-04T09:10:00;144815.75;;;6.57;100.00
28354;BME280;15603;50.878;8.036;2023-02-04T09:12:27;144888.47;;;6.87;100.00
28354;BME280;15603;50.878;8.036;2023-02-04T09:14:54;144932.09;;;7.06;100.00
28354;BME280;15603;50.878;8.036;2023-02-04T09:17:21;144867.84;;;6.79;100.00
28354;BME280;15603;50.878;8.036;2023-02-04T09:19:48;144755.13;;;6.31;100.00
28354;BME280;15603;50.878;8.036;2023-02-04T09:22:15;144825.44;;;6.61;100.00
28354;BME280;15603;50.878;8.036;2023-02-04T09:24:42;144853.31;;;6.73;100.00
28354;BME280;15603;50.878;8.036;2023-02-04T09:27:09;144808.47;;;6.54;100.00
28354;BME280;15603;50.878;8.036;2023-02-04T09:29:36;144926.03;;;7.03;100.00
28354;BME280;15603;50.878;8.036;2023-02-04T09:32:04;144881.19;;;6.84;100.00
28354;BME280;15603;50.878;8.036;2023-02-04T09:34:31;144900.56;;;6.93;100.00
28354;BME280;15603;50.878;8.036;2023-02-04T09:36:58;144929.69;;;7.05;100.00
28354;BME280;15603;50.878;8.036;2023-02-04T09:39:27;144963.63;;;7.19;100.00
28354;BME280;15603;50.878;8.036;2023-02-04T09:41:54;144844.81;;;6.69;100.00
28354;BME280;15603;50.878;8.036;2023-02-04T09:44:24;144974.56;;;7.24;100.00
28354;BME280;15603;50.878;8.036;2023-02-04T09:46:54;144981.81;;;7.27;100.00
28354;BME280;15603;50.878;8.036;2023-02-04T09:49:23;144826.66;;;6.61;100.00
28354;BME280;15603;50.878;8.036;2023-02-04T09:51:51;144844.81;;;6.69;100.00
28354;BME280;15603;50.878;8.036;2023-02-04T09:54:20;145043.69;;;7.53;100.00
28354;BME280;15603;50.878;8.036;2023-02-04T09:56:48;145041.22;;;7.52;100.00
28354;BME280;15603;50.878;8.036;2023-02-04T09:59:21;144963.63;;;7.19;100.00
28354;BME280;15603;50.878;8.036;2023-02-04T10:01:59;144966.06;;;7.20;100.00
28354;BME280;15603;50.878;8.036;2023-02-04T10:04:27;144983.06;;;7.27;100.00
28354;BME280;15603;50.878;8.036;2023-02-04T10:06:55;144818.16;;;6.58;100.00
28354;BME280;15603;50.878;8.036;2023-02-04T10:09:24;144975.75;;;7.24;100.00
28354;BME280;15603;50.878;8.036;2023-02-04T10:11:52;144924.84;;;7.03;100.00
28354;BME280;15603;50.878;8.036;2023-02-04T10:14:21;144983.06;;;7.27;100.00
28354;BME280;15603;50.878;8.036;2023-02-04T10:16:54;144869.06;;;6.79;99.56
28354;BME280;15603;50.878;8.036;2023-02-04T10:19:26;145026.69;;;7.46;99.08
28354;BME280;15603;50.878;8.036;2023-02-04T10:21:54;145055.81;;;7.58;100.00
28354;BME280;15603;50.878;8.036;2023-02-04T10:24:23;145070.38;;;7.64;98.14
28354;BME280;15603;50.878;8.036;2023-02-04T10:26:53;144926.03;;;7.03;96.60
28354;BME280;15603;50.878;8.036;2023-02-04T10:29:22;145082.47;;;7.70;95.69
28354;BME280;15603;50.878;8.036;2023-02-04T10:31:52;145172.25;;;8.07;96.22
28354;BME280;15603;50.878;8.036;2023-02-04T10:34:23;145042.47;;;7.53;93.69
28354;BME280;15603;50.878;8.036;2023-02-04T10:36:54;145344.63;;;8.80;90.76
28354;BME280;15603;50.878;8.036;2023-02-04T10:39:25;145253.59;;;8.42;89.33
28354;BME280;15603;50.878;8.036;2023-02-04T10:41:55;145268.16;;;8.48;90.03
28354;BME280;15603;50.878;8.036;2023-02-04T10:44:31;145252.41;;;8.41;90.90
28354;BME280;15603;50.878;8.036;2023-02-04T10:47:00;145262.09;;;8.45;90.72
28354;BME280;15603;50.878;8.036;2023-02-04T10:49:27;145169.84;;;8.06;91.93
28354;BME280;15603;50.878;8.036;2023-02-04T10:52:05;145206.25;;;8.22;92.78
28354;BME280;15603;50.878;8.036;2023-02-04T10:54:39;145186.78;;;8.14;95.63
28354;BME280;15603;50.878;8.036;2023-02-04T10:59:57;145285.16;;;8.55;88.68
28354;BME280;15603;50.878;8.036;2023-02-04T11:05:23;145270.59;;;8.49;87.04
28354;BME280;15603;50.878;8.036;2023-02-04T11:07:54;145351.94;;;8.83;89.60
28354;BME280;15603;50.878;8.036;2023-02-04T11:10:23;145211.09;;;8.24;89.24
28354;BME280;15603;50.878;8.036;2023-02-04T11:21:23;145258.44;;;8.44;90.63
28354;BME280;15603;50.878;8.036;2023-02-04T11:24:24;145247.50;;;8.39;91.25
28354;BME280;15603;50.878;8.036;2023-02-04T11:27:03;145192.91;;;8.16;88.85
28354;BME280;15603;50.878;8.036;2023-02-04T11:29:35;145292.47;;;8.58;89.03
28354;BME280;15603;50.878;8.036;2023-02-04T11:32:30;145211.09;;;8.24;90.07
28354;BME280;15603;50.878;8.036;2023-02-04T11:35:24;145232.91;;;8.33;93.38
28354;BME280;15603;50.878;8.036;2023-02-04T11:37:51;145237.81;;;8.35;94.29
28354;BME280;15603;50.878;8.036;2023-02-04T11:40:28;145247.50;;;8.39;93.09
28354;BME280;15603;50.878;8.036;2023-02-04T11:42:58;145157.69;;;8.01;92.20
28354;BME280;15603;50.878;8.036;2023-02-04T11:45:35;145313.06;;;8.67;92.92
28354;BME280;15603;50.878;8.036;2023-02-04T11:48:11;145322.78;;;8.71;87.30
28354;BME280;15603;50.878;8.036;2023-02-04T11:50:38;145339.78;;;8.78;87.05
28354;BME280;15603;50.878;8.036;2023-02-04T11:53:10;145389.56;;;8.99;83.33
28354;BME280;15603;50.878;8.036;2023-02-04T11:56:04;145434.47;;;9.18;81.35
28354;BME280;15603;50.878;8.036;2023-02-04T12:02:17;145320.38;;;8.70;83.05
28354;BME280;15603;50.878;8.036;2023-02-04T12:05:15;145412.63;;;9.09;82.96
28354;BME280;15603;50.878;8.036;2023-02-04T12:20:32;145585.09;;;9.82;73.11
28354;BME280;15603;50.878;8.036;2023-02-04T12:23:25;145599.66;;;9.88;72.89
28354;BME280;15603;50.878;8.036;2023-02-04T12:29:20;145589.94;;;9.84;71.94
28354;BME280;15603;50.878;8.036;2023-02-04T12:31:47;145507.34;;;9.49;72.88
28354;BME280;15603;50.878;8.036;2023-02-04T12:34:15;145538.94;;;9.62;74.12
28354;BME280;15603;50.878;8.036;2023-02-04T12:36:43;145514.59;;;9.52;75.06
28354;BME280;15603;50.878;8.036;2023-02-04T12:43:35;145529.22;;;9.58;75.91
28354;BME280;15603;50.878;8.036;2023-02-04T12:46:02;145452.69;;;9.26;76.10
28354;BME280;15603;50.878;8.036;2023-02-04T12:48:29;145489.13;;;9.41;75.59
28354;BME280;15603;50.878;8.036;2023-02-04T12:50:57;145429.63;;;9.16;76.12
28354;BME280;15603;50.878;8.036;2023-02-04T12:53:24;145400.47;;;9.04;77.93
28354;BME280;15603;50.878;8.036;2023-02-04T12:55:51;145463.63;;;9.31;76.81
28354;BME280;15603;50.878;8.036;2023-02-04T12:58:18;145395.63;;;9.02;73.16
28354;BME280;15603;50.878;8.036;2023-02-04T13:00:45;145303.38;;;8.63;74.01
28354;BME280;15603;50.878;8.036;2023-02-04T13:03:12;145400.47;;;9.04;72.18
28354;BME280;15603;50.878;8.036;2023-02-04T13:05:39;145361.63;;;8.88;72.74
28354;BME280;15603;50.878;8.036;2023-02-04T13:08:06;145427.19;;;9.15;72.77
28354;BME280;15603;50.878;8.036;2023-02-04T13:10:33;145321.56;;;8.71;72.58
28354;BME280;15603;50.878;8.036;2023-02-04T13:13:00;145422.31;;;9.13;72.94
28354;BME280;15603;50.878;8.036;2023-02-04T13:15:30;145325.22;;;8.72;73.08
28354;BME280;15603;50.878;8.036;2023-02-04T13:17:58;145484.28;;;9.39;71.96
28354;BME280;15603;50.878;8.036;2023-02-04T13:20:25;145449.03;;;9.24;73.81
28354;BME280;15603;50.878;8.036;2023-02-04T13:22:52;145457.56;;;9.28;80.20
28354;BME280;15603;50.878;8.036;2023-02-04T13:25:20;145538.94;;;9.62;73.33
28354;BME280;15603;50.878;8.036;2023-02-04T13:27:47;145496.41;;;9.44;73.34
28354;BME280;15603;50.878;8.036;2023-02-04T13:30:14;145538.94;;;9.62;73.58
28354;BME280;15603;50.878;8.036;2023-02-04T13:32:41;145572.91;;;9.77;73.66
28354;BME280;15603;50.878;8.036;2023-02-04T13:35:09;145399.25;;;9.03;72.80
28354;BME280;15603;50.878;8.036;2023-02-04T13:37:37;145626.38;;;9.99;72.22
28354;BME280;15603;50.878;8.036;2023-02-04T13:40:05;145578.97;;;9.79;75.33